Time;durP1;ratioP1;P1;durP2;ratioP2;P2;SDS_P1;SDS_P2;PMS_P1;PMS_P2;Temp;Humidity;BMP_temperature;BMP_pressure;BME280_temperature;BME280_humidity;BME280_pressure;Samples;Min_cycle;Max_cycle;Signal;HPM_P1;HPM_P2
2022/09/28 00:01:08;;;;;;;;;2.00;2.00;;;;;;;;5071975;28;45378;-75
2022/09/28 00:03:34;;;;;;;;;3.00;1.67;;;;;;;;5053940;28;46219;-75
2022/09/28 00:06:00;;;;;;;;;2.33;1.00;;;;;;;;5056382;28;45329;-75
2022/09/28 00:08:25;;;;;;;;;1.00;1.00;;;;;;;;5057396;28;45259;-75
2022/09/28 00:10:55;;;;;;;;;4.00;2.00;;;;;;;;5054493;28;45279;-74
2022/09/28 00:13:20;;;;;;;;;2.00;1.00;;;;;;;;5047877;28;45515;-75
2022/09/28 00:15:45;;;;;;;;;3.00;2.00;;;;;;;;5053624;28;45237;-74
2022/09/28 00:18:10;;;;;;;;;2.67;1.00;;;;;;;;5055943;28;45304;-74
2022/09/28 00:20:36;;;;;;;;;6.00;5.00;;;;;;;;5053475;28;45286;-74
2022/09/28 00:23:01;;;;;;;;;9.00;7.00;;;;;;;;5053076;28;46161;-74
2022/09/28 00:25:26;;;;;;;;;3.67;2.33;;;;;;;;5055537;28;45302;-74
2022/09/28 00:27:52;;;;;;;;;9.50;5.25;;;;;;;;5053433;28;45469;-74
2022/09/28 00:30:17;;;;;;;;;4.67;3.00;;;;;;;;5052471;28;44987;-74
2022/09/28 00:32:42;;;;;;;;;6.50;6.00;;;;;;;;5058028;28;48557;-74
2022/09/28 00:35:07;;;;;;;;;16.25;13.75;;;;;;;;5069474;28;45379;-74
2022/09/28 00:37:33;;;;;;;;;7.00;6.00;;;;;;;;5041147;28;45844;-74
2022/09/28 00:39:58;;;;;;;;;2.75;2.75;;;;;;;;5053911;28;44563;-74
2022/09/28 00:42:25;;;;;;;;;2.00;1.00;;;;;;;;5051784;28;45629;-74
2022/09/28 00:44:56;;;;;;;;;4.33;2.00;;;;;;;;5051766;28;45466;-74
2022/09/28 00:47:34;;;;;;;;;1.25;1.25;;;;;;;;5059080;28;45365;-74
2022/09/28 00:50:05;;;;;;;;;3.00;1.00;;;;;;;;5055366;28;45328;-73
2022/09/28 00:52:33;;;;;;;;;2.00;2.00;;;;;;;;5055742;28;47058;-73
2022/09/28 00:55:00;;;;;;;;;1.67;1.67;;;;;;;;5051855;28;45449;-74
2022/09/28 00:57:26;;;;;;;;;2.33;2.33;;;;;;;;5050955;28;45357;-74
2022/09/28 00:59:51;;;;;;;;;2.00;2.00;;;;;;;;5055686;28;46053;-74
2022/09/28 01:02:18;;;;;;;;;3.00;1.67;;;;;;;;5058995;28;45264;-74
2022/09/28 01:04:43;;;;;;;;;2.00;1.00;;;;;;;;5054003;28;45282;-74
2022/09/28 01:07:08;;;;;;;;;5.00;2.00;;;;;;;;5057355;28;45549;-74
2022/09/28 01:09:35;;;;;;;;;2.00;2.00;;;;;;;;5052324;28;45454;-73
2022/09/28 01:12:01;;;;;;;;;1.67;1.67;;;;;;;;5055402;28;45466;-73
2022/09/28 01:14:26;;;;;;;;;3.00;2.50;;;;;;;;5054251;28;45311;-74
2022/09/28 01:16:51;;;;;;;;;5.50;4.25;;;;;;;;5052979;28;45244;-73
2022/09/28 01:19:32;;;;;;;;;5.00;2.50;;;;;;;;5067718;28;48331;-74
2022/09/28 01:22:16;;;;;;;;;3.67;1.67;;;;;;;;5042883;28;45795;-74
2022/09/28 01:24:45;;;;;;;;;8.00;5.25;;;;;;;;5071419;28;45260;-73
2022/09/28 01:27:19;;;;;;;;;3.00;2.00;;;;;;;;5045643;28;45201;-74
2022/09/28 01:29:59;;;;;;;;;4.25;2.75;;;;;;;;5049698;28;45477;-73
2022/09/28 01:32:30;;;;;;;;;2.75;2.75;;;;;;;;5046603;28;46373;-73
2022/09/28 01:34:56;;;;;;;;;4.33;2.00;;;;;;;;5066677;28;46116;-74
2022/09/28 01:37:26;;;;;;;;;5.00;3.00;;;;;;;;5058213;28;45414;-74
2022/09/28 01:39:53;;;;;;;;;4.25;3.00;;;;;;;;5053854;28;45296;-74
2022/09/28 01:42:21;;;;;;;;;7.00;6.00;;;;;;;;5048576;28;45321;-74
2022/09/28 01:44:48;;;;;;;;;3.25;3.00;;;;;;;;5051938;28;45237;-74
2022/09/28 01:47:18;;;;;;;;;6.75;5.00;;;;;;;;5049899;28;46436;-73
2022/09/28 01:49:46;;;;;;;;;8.00;5.25;;;;;;;;5052356;28;45391;-74
2022/09/28 01:52:16;;;;;;;;;4.75;3.00;;;;;;;;5058252;28;45241;-74
2022/09/28 01:54:54;;;;;;;;;1.00;1.00;;;;;;;;5053104;28;45375;-74
2022/09/28 01:57:46;;;;;;;;;2.67;2.00;;;;;;;;5051093;28;45341;-73
2022/09/28 02:00:13;;;;;;;;;6.00;3.00;;;;;;;;5030558;28;45369;-74
2022/09/28 02:02:57;;;;;;;;;9.00;6.00;;;;;;;;5053490;28;45548;-74
2022/09/28 02:05:25;;;;;;;;;3.00;2.50;;;;;;;;5051466;28;45470;-73
2022/09/28 02:07:58;;;;;;;;;2.50;2.00;;;;;;;;5070126;28;45438;-73
2022/09/28 02:10:26;;;;;;;;;2.00;2.00;;;;;;;;5058064;28;45291;-73
2022/09/28 02:12:56;;;;;;;;;4.75;4.75;;;;;;;;5049422;28;45413;-73
2022/09/28 02:15:25;;;;;;;;;1.00;0.00;;;;;;;;5056253;28;45355;-73
2022/09/28 02:17:51;;;;;;;;;3.33;2.33;;;;;;;;5067519;28;45328;-73
2022/09/28 02:20:16;;;;;;;;;2.50;2.50;;;;;;;;5055585;28;45573;-73
2022/09/28 02:22:54;;;;;;;;;1.00;1.00;;;;;;;;5053602;28;45181;-74
2022/09/28 02:25:26;;;;;;;;;4.00;4.00;;;;;;;;5045736;28;45384;-74
2022/09/28 02:27:51;;;;;;;;;3.00;2.00;;;;;;;;5054951;28;45300;-74
2022/09/28 02:30:17;;;;;;;;;3.50;2.00;;;;;;;;5064861;28;45239;-74
2022/09/28 02:32:44;;;;;;;;;3.00;2.00;;;;;;;;5047465;28;46057;-74
2022/09/28 02:35:11;;;;;;;;;4.67;2.67;;;;;;;;5054081;28;45347;-74
2022/09/28 02:37:37;;;;;;;;;6.33;3.67;;;;;;;;5047317;28;45248;-74
2022/09/28 02:40:08;;;;;;;;;2.00;1.00;;;;;;;;5060915;28;45599;-74
2022/09/28 02:42:37;;;;;;;;;4.75;2.75;;;;;;;;5055950;28;46227;-74
2022/09/28 02:45:12;;;;;;;;;2.75;2.25;;;;;;;;5055620;28;45528;-74
2022/09/28 02:47:38;;;;;;;;;3.67;2.33;;;;;;;;5057743;28;45584;-74
2022/09/28 02:50:14;;;;;;;;;3.67;2.67;;;;;;;;5054168;28;45429;-73
2022/09/28 02:52:42;;;;;;;;;4.00;2.67;;;;;;;;5049911;28;45256;-74
2022/09/28 02:55:10;;;;;;;;;3.00;2.75;;;;;;;;5056534;28;45150;-74
2022/09/28 02:57:54;;;;;;;;;3.00;2.00;;;;;;;;5052546;28;45346;-73
2022/09/28 03:00:20;;;;;;;;;6.00;3.00;;;;;;;;5056412;28;45327;-73
2022/09/28 03:02:49;;;;;;;;;3.00;2.00;;;;;;;;5059354;27;46698;-73
2022/09/28 03:05:15;;;;;;;;;3.00;1.33;;;;;;;;5061071;28;45279;-73
2022/09/28 03:07:45;;;;;;;;;2.67;2.67;;;;;;;;5056481;28;45153;-73
2022/09/28 03:10:15;;;;;;;;;3.67;1.00;;;;;;;;5060059;28;45430;-73
2022/09/28 03:12:42;;;;;;;;;2.33;2.33;;;;;;;;5058907;28;45974;-73
2022/09/28 03:15:08;;;;;;;;;3.00;3.00;;;;;;;;5057862;28;45409;-73
2022/09/28 03:17:33;;;;;;;;;3.75;2.00;;;;;;;;5048446;28;45387;-73
2022/09/28 03:19:58;;;;;;;;;5.50;2.25;;;;;;;;5056623;28;45260;-73
2022/09/28 03:22:23;;;;;;;;;3.00;3.00;;;;;;;;5041983;28;48170;-73
2022/09/28 03:24:49;;;;;;;;;3.00;3.00;;;;;;;;5054312;28;45587;-73
2022/09/28 03:27:14;;;;;;;;;3.50;3.50;;;;;;;;5051307;28;45645;-73
2022/09/28 03:29:39;;;;;;;;;2.75;2.75;;;;;;;;5055980;28;45299;-73
2022/09/28 03:32:04;;;;;;;;;6.50;4.00;;;;;;;;5045518;28;45324;-73
2022/09/28 03:34:30;;;;;;;;;2.25;2.00;;;;;;;;5052411;28;45495;-73
2022/09/28 03:36:55;;;;;;;;;2.00;2.00;;;;;;;;5050338;28;45319;-73
2022/09/28 03:39:20;;;;;;;;;2.50;2.00;;;;;;;;5070019;28;45672;-73
2022/09/28 03:41:45;;;;;;;;;5.67;3.00;;;;;;;;5053740;28;45467;-73
2022/09/28 03:44:11;;;;;;;;;2.50;2.50;;;;;;;;5063862;28;45316;-73
2022/09/28 03:46:36;;;;;;;;;4.75;3.75;;;;;;;;5072615;28;44717;-73
2022/09/28 03:49:01;;;;;;;;;3.00;3.00;;;;;;;;5049319;28;45516;-73
2022/09/28 03:51:26;;;;;;;;;3.25;2.75;;;;;;;;5059654;28;45551;-73
2022/09/28 03:53:52;;;;;;;;;3.00;3.00;;;;;;;;5065234;28;45344;-73
2022/09/28 03:56:17;;;;;;;;;5.00;2.00;;;;;;;;5080390;27;45335;-73
2022/09/28 03:58:42;;;;;;;;;8.75;5.50;;;;;;;;5047018;28;45455;-74
2022/09/28 04:01:11;;;;;;;;;4.75;4.75;;;;;;;;5047269;28;48351;-73
2022/09/28 04:03:36;;;;;;;;;5.50;3.75;;;;;;;;5049671;28;46031;-73
2022/09/28 04:06:01;;;;;;;;;4.25;4.25;;;;;;;;5051032;28;45243;-73
2022/09/28 04:08:26;;;;;;;;;3.75;3.75;;;;;;;;5050982;28;45406;-73
2022/09/28 04:10:54;;;;;;;;;6.25;4.00;;;;;;;;5053802;28;45298;-73
2022/09/28 04:13:19;;;;;;;;;4.25;4.00;;;;;;;;5052872;28;45331;-73
2022/09/28 04:15:51;;;;;;;;;4.50;4.50;;;;;;;;5055135;28;45572;-73
2022/09/28 04:18:16;;;;;;;;;5.75;4.50;;;;;;;;5054818;28;45270;-73
2022/09/28 04:20:44;;;;;;;;;4.25;4.00;;;;;;;;5058268;28;45416;-73
2022/09/28 04:23:10;;;;;;;;;3.00;3.00;;;;;;;;5055850;28;45363;-73
2022/09/28 04:25:35;;;;;;;;;4.50;3.00;;;;;;;;5056341;28;45406;-73
2022/09/28 04:30:45;;;;;;;;;4.00;4.00;;;;;;;;5052809;28;45586;-73
2022/09/28 04:33:10;;;;;;;;;3.25;3.25;;;;;;;;5046768;28;45778;-73
2022/09/28 04:35:35;;;;;;;;;3.00;1.75;;;;;;;;5050584;28;45216;-73
2022/09/28 04:38:01;;;;;;;;;4.00;3.00;;;;;;;;5047075;28;45513;-73
2022/09/28 04:40:26;;;;;;;;;3.00;2.00;;;;;;;;5053556;28;46009;-73
2022/09/28 04:42:55;;;;;;;;;3.50;3.50;;;;;;;;5050050;28;45571;-74
2022/09/28 04:45:20;;;;;;;;;4.50;4.00;;;;;;;;5055018;28;44875;-73
2022/09/28 04:47:45;;;;;;;;;6.50;5.00;;;;;;;;5057495;28;45280;-73
2022/09/28 04:50:11;;;;;;;;;8.00;4.00;;;;;;;;5055922;28;45379;-73
2022/09/28 04:52:36;;;;;;;;;6.00;4.00;;;;;;;;5056994;28;45474;-73
2022/09/28 04:55:01;;;;;;;;;8.25;5.00;;;;;;;;5058066;28;45363;-75
2022/09/28 04:57:27;;;;;;;;;6.00;4.25;;;;;;;;5055707;28;45893;-74
2022/09/28 04:59:52;;;;;;;;;7.25;5.25;;;;;;;;5057971;28;45473;-72
2022/09/28 05:02:17;;;;;;;;;5.00;5.00;;;;;;;;5058228;28;45349;-73
2022/09/28 05:04:42;;;;;;;;;7.25;5.75;;;;;;;;5057405;28;45378;-73
2022/09/28 05:07:08;;;;;;;;;4.50;4.25;;;;;;;;5058868;28;45344;-75
2022/09/28 05:09:33;;;;;;;;;6.25;4.75;;;;;;;;5056695;28;45446;-75
2022/09/28 05:11:58;;;;;;;;;6.00;4.75;;;;;;;;5058978;28;45396;-73
2022/09/28 05:14:24;;;;;;;;;7.25;5.00;;;;;;;;5057152;28;45383;-75
2022/09/28 05:16:49;;;;;;;;;6.75;5.00;;;;;;;;5059067;28;45523;-75
2022/09/28 05:19:14;;;;;;;;;7.25;6.50;;;;;;;;5056811;28;45362;-75
2022/09/28 05:21:42;;;;;;;;;7.75;4.25;;;;;;;;5058544;28;45373;-75
2022/09/28 05:24:09;;;;;;;;;4.75;4.00;;;;;;;;5056674;28;45469;-74
2022/09/28 05:26:34;;;;;;;;;6.50;4.25;;;;;;;;5059130;28;45486;-76
2022/09/28 05:28:59;;;;;;;;;6.75;4.75;;;;;;;;5056416;28;46418;-76
2022/09/28 05:31:26;;;;;;;;;4.50;4.00;;;;;;;;5058165;28;45321;-76
2022/09/28 05:33:52;;;;;;;;;4.75;4.00;;;;;;;;5057604;28;45487;-75
2022/09/28 05:36:17;;;;;;;;;6.25;4.50;;;;;;;;5055862;28;45436;-73
2022/09/28 05:38:42;;;;;;;;;6.50;4.00;;;;;;;;5055845;28;46204;-76
2022/09/28 05:41:07;;;;;;;;;4.25;3.25;;;;;;;;5057308;28;45445;-76
2022/09/28 05:43:33;;;;;;;;;3.75;3.75;;;;;;;;5055894;28;45248;-76
2022/09/28 05:45:59;;;;;;;;;7.00;4.75;;;;;;;;5052461;28;45714;-76
2022/09/28 05:48:24;;;;;;;;;7.75;4.25;;;;;;;;5054744;28;45461;-76
2022/09/28 05:50:52;;;;;;;;;5.75;5.75;;;;;;;;5057415;28;45356;-76
2022/09/28 05:53:17;;;;;;;;;7.25;5.25;;;;;;;;5055694;28;45407;-75
2022/09/28 05:55:42;;;;;;;;;4.50;4.50;;;;;;;;5057655;28;45331;-76
2022/09/28 05:58:08;;;;;;;;;3.50;3.50;;;;;;;;5055421;28;45389;-73
2022/09/28 06:00:34;;;;;;;;;7.00;5.75;;;;;;;;5055703;28;45261;-73
2022/09/28 06:03:10;;;;;;;;;6.00;6.00;;;;;;;;5053796;28;45473;-73
2022/09/28 06:05:37;;;;;;;;;6.00;6.00;;;;;;;;5051744;28;45547;-72
2022/09/28 06:08:04;;;;;;;;;7.25;5.75;;;;;;;;5047811;28;45363;-73
2022/09/28 06:10:29;;;;;;;;;7.00;6.00;;;;;;;;5059256;27;45297;-75
2022/09/28 06:12:55;;;;;;;;;7.00;5.25;;;;;;;;5052949;28;45410;-70
2022/09/28 06:15:21;;;;;;;;;6.00;4.50;;;;;;;;5059303;28;45379;-72
2022/09/28 06:17:46;;;;;;;;;8.00;7.00;;;;;;;;5056696;28;46251;-75
2022/09/28 06:20:11;;;;;;;;;8.00;6.75;;;;;;;;5060682;28;45354;-75
2022/09/28 06:22:37;;;;;;;;;6.50;5.00;;;;;;;;5058721;28;45283;-78
2022/09/28 06:25:03;;;;;;;;;5.25;5.25;;;;;;;;5060235;28;45339;-78
2022/09/28 06:27:28;;;;;;;;;5.75;5.75;;;;;;;;5050658;28;45434;-76
2022/09/28 06:29:53;;;;;;;;;6.50;5.00;;;;;;;;5050378;28;45324;-76
2022/09/28 06:32:18;;;;;;;;;6.00;6.00;;;;;;;;5051889;28;45414;-79
2022/09/28 06:34:43;;;;;;;;;6.00;4.75;;;;;;;;5055847;28;45565;-79
2022/09/28 06:37:09;;;;;;;;;6.00;4.75;;;;;;;;5061415;28;45382;-78
2022/09/28 06:39:34;;;;;;;;;7.75;6.75;;;;;;;;5053410;28;45564;-76
2022/09/28 06:42:02;;;;;;;;;6.00;5.00;;;;;;;;5057513;28;45298;-79
2022/09/28 06:44:27;;;;;;;;;7.00;3.00;;;;;;;;5085637;27;45386;-77
2022/09/28 06:46:54;;;;;;;;;6.50;5.25;;;;;;;;5055034;28;45383;-76
2022/09/28 06:49:19;;;;;;;;;5.50;4.75;;;;;;;;5056667;28;45406;-75
2022/09/28 06:51:45;;;;;;;;;3.00;3.00;;;;;;;;5078529;27;45492;-76
2022/09/28 06:54:10;;;;;;;;;6.25;5.25;;;;;;;;5052175;28;45498;-75
2022/09/28 06:56:35;;;;;;;;;9.00;5.75;;;;;;;;5060546;28;46323;-75
2022/09/28 06:59:01;;;;;;;;;8.50;6.25;;;;;;;;5058666;28;45454;-74
2022/09/28 07:01:26;;;;;;;;;7.25;5.00;;;;;;;;5055365;28;45340;-75
2022/09/28 07:03:51;;;;;;;;;5.50;5.25;;;;;;;;5047546;28;45336;-76
2022/09/28 07:06:17;;;;;;;;;5.75;5.75;;;;;;;;5053821;28;45179;-74
2022/09/28 07:08:42;;;;;;;;;6.75;5.50;;;;;;;;5054558;28;45429;-75
2022/09/28 07:11:08;;;;;;;;;6.00;6.00;;;;;;;;5054383;28;45437;-75
2022/09/28 07:13:33;;;;;;;;;5.75;4.00;;;;;;;;5057673;28;45521;-76
2022/09/28 07:15:58;;;;;;;;;6.25;5.75;;;;;;;;5057020;28;45421;-77
2022/09/28 07:18:24;;;;;;;;;5.75;4.75;;;;;;;;5056632;28;45414;-73
2022/09/28 07:20:49;;;;;;;;;8.25;4.25;;;;;;;;5054287;28;45299;-74
2022/09/28 07:23:14;;;;;;;;;6.00;3.00;;;;;;;;5085889;27;45901;-74
2022/09/28 07:25:44;;;;;;;;;4.50;4.50;;;;;;;;5084270;27;46806;-74
2022/09/28 07:28:10;;;;;;;;;6.50;5.00;;;;;;;;5054579;28;45241;-74
2022/09/28 07:30:35;;;;;;;;;3.00;3.00;;;;;;;;5052696;28;45339;-75
2022/09/28 07:33:01;;;;;;;;;4.00;3.67;;;;;;;;5052964;28;45254;-75
2022/09/28 07:35:26;;;;;;;;;3.00;3.00;;;;;;;;5057107;28;45322;-74
2022/09/28 07:37:59;;;;;;;;;4.00;4.00;;;;;;;;5055343;28;45314;-74
2022/09/28 07:43:08;;;;;;;;;4.50;4.25;;;;;;;;5043264;28;45271;-74
2022/09/28 07:45:37;;;;;;;;;4.00;4.00;;;;;;;;5057233;28;45401;-75
2022/09/28 07:48:02;;;;;;;;;4.50;4.50;;;;;;;;5047107;28;45458;-75
2022/09/28 07:50:28;;;;;;;;;6.00;5.00;;;;;;;;5060521;28;45289;-74
2022/09/28 07:52:54;;;;;;;;;5.00;5.00;;;;;;;;5054557;28;45454;-74
2022/09/28 07:55:20;;;;;;;;;4.00;4.00;;;;;;;;5053934;28;45224;-75
2022/09/28 07:57:46;;;;;;;;;6.00;4.00;;;;;;;;5056380;28;45447;-74
2022/09/28 08:00:12;;;;;;;;;5.00;4.00;;;;;;;;5050392;28;45508;-74
2022/09/28 08:02:38;;;;;;;;;4.67;4.00;;;;;;;;5047113;28;45268;-75
2022/09/28 08:05:03;;;;;;;;;7.33;4.00;;;;;;;;5056246;28;45944;-75
2022/09/28 08:07:28;;;;;;;;;4.00;1.00;;;;;;;;5051376;28;45378;-75
2022/09/28 08:09:53;;;;;;;;;6.00;3.67;;;;;;;;5053180;28;45257;-75
2022/09/28 08:12:20;;;;;;;;;6.67;3.00;;;;;;;;5054955;28;45480;-74
2022/09/28 08:14:45;;;;;;;;;3.00;3.00;;;;;;;;5053902;28;46441;-74
2022/09/28 08:17:11;;;;;;;;;3.00;3.00;;;;;;;;5072070;28;45460;-74
2022/09/28 08:22:20;;;;;;;;;4.67;3.00;;;;;;;;5058481;28;45563;-74
2022/09/28 08:24:45;;;;;;;;;4.00;3.33;;;;;;;;5057452;28;46130;-74
2022/09/28 08:27:11;;;;;;;;;5.00;3.00;;;;;;;;5054657;28;46583;-74
2022/09/28 08:29:36;;;;;;;;;3.00;3.00;;;;;;;;5046954;28;45242;-74
2022/09/28 08:32:02;;;;;;;;;5.00;2.67;;;;;;;;5060227;28;45444;-74
2022/09/28 08:34:28;;;;;;;;;3.00;3.00;;;;;;;;5058099;28;47021;-75
2022/09/28 08:36:55;;;;;;;;;2.33;2.00;;;;;;;;5046863;28;45490;-74
2022/09/28 08:39:20;;;;;;;;;3.00;3.00;;;;;;;;5052104;28;45208;-74
2022/09/28 08:41:57;;;;;;;;;4.00;3.00;;;;;;;;5050335;28;45969;-74
2022/09/28 08:44:23;;;;;;;;;2.33;2.33;;;;;;;;5050287;28;46273;-74
2022/09/28 08:46:52;;;;;;;;;2.00;2.00;;;;;;;;5052796;28;45378;-74
2022/09/28 08:49:24;;;;;;;;;3.00;3.00;;;;;;;;5067738;28;45330;-74
2022/09/28 08:52:06;;;;;;;;;5.00;2.00;;;;;;;;5055073;28;45426;-74
2022/09/28 08:54:44;;;;;;;;;2.00;2.00;;;;;;;;5049451;28;48113;-74
2022/09/28 08:57:12;;;;;;;;;3.00;2.00;;;;;;;;5055150;28;44757;-74
2022/09/28 08:59:49;;;;;;;;;1.33;1.00;;;;;;;;5044949;28;45405;-74
2022/09/28 09:02:17;;;;;;;;;3.00;3.00;;;;;;;;5044808;28;45433;-74
2022/09/28 09:04:42;;;;;;;;;2.67;2.00;;;;;;;;5044934;28;45421;-74
2022/09/28 09:07:13;;;;;;;;;1.33;1.33;;;;;;;;5048235;28;45281;-74
2022/09/28 09:09:59;;;;;;;;;3.00;2.00;;;;;;;;5067972;28;45418;-72
2022/09/28 09:12:24;;;;;;;;;3.00;3.00;;;;;;;;5038168;28;45293;-71
2022/09/28 09:14:49;;;;;;;;;2.00;2.00;;;;;;;;5055739;28;46261;-72
2022/09/28 09:17:33;;;;;;;;;3.25;3.00;;;;;;;;5059412;28;45329;-72
2022/09/28 09:20:01;;;;;;;;;3.67;2.67;;;;;;;;5055054;28;45369;-72
2022/09/28 09:22:32;;;;;;;;;2.00;2.00;;;;;;;;5058033;28;45197;-72
2022/09/28 09:24:57;;;;;;;;;2.00;2.00;;;;;;;;5055800;28;45519;-72
2022/09/28 09:27:40;;;;;;;;;3.00;2.00;;;;;;;;5055952;28;44941;-72
2022/09/28 09:30:16;;;;;;;;;2.00;2.00;;;;;;;;5056400;28;45354;-71
2022/09/28 09:32:44;;;;;;;;;3.33;2.00;;;;;;;;5057319;28;45441;-72
2022/09/28 09:35:12;;;;;;;;;1.67;1.33;;;;;;;;5056613;28;46396;-70
2022/09/28 09:38:15;;;;;;;;;3.00;3.00;;;;;;;;5057166;28;45599;-70
2022/09/28 09:40:40;;;;;;;;;3.33;2.00;;;;;;;;5000883;28;45349;-71
2022/09/28 09:43:24;;;;;;;;;0.33;0.33;;;;;;;;5025964;28;45266;-71
2022/09/28 09:46:05;;;;;;;;;1.67;1.33;;;;;;;;5037801;28;45258;-71
2022/09/28 09:48:35;;;;;;;;;3.00;3.00;;;;;;;;5035277;28;45246;-71
2022/09/28 09:51:03;;;;;;;;;4.33;1.33;;;;;;;;5034705;28;45376;-72
2022/09/28 09:53:32;;;;;;;;;3.00;2.00;;;;;;;;5026668;28;45397;-71
2022/09/28 09:56:02;;;;;;;;;1.00;1.00;;;;;;;;5037458;28;45705;-72
2022/09/28 09:58:28;;;;;;;;;4.33;2.00;;;;;;;;5033857;28;45281;-71
2022/09/28 10:00:55;;;;;;;;;2.00;2.00;;;;;;;;5037647;28;45428;-71
2022/09/28 10:03:20;;;;;;;;;1.00;1.00;;;;;;;;5015542;28;46350;-71
2022/09/28 10:05:49;;;;;;;;;2.00;2.00;;;;;;;;5037197;28;45491;-71
2022/09/28 10:08:16;;;;;;;;;2.00;2.00;;;;;;;;5033812;28;45316;-72
2022/09/28 10:11:00;;;;;;;;;2.67;1.67;;;;;;;;5037998;28;45248;-72
2022/09/28 10:13:26;;;;;;;;;1.00;1.00;;;;;;;;5032479;28;48072;-72
2022/09/28 10:15:51;;;;;;;;;3.67;2.00;;;;;;;;5036114;28;45520;-72
2022/09/28 10:18:18;;;;;;;;;1.33;1.33;;;;;;;;5033504;28;45385;-72
2022/09/28 10:20:46;;;;;;;;;1.00;1.00;;;;;;;;5029798;28;45238;-72
2022/09/28 10:23:32;;;;;;;;;2.33;1.00;;;;;;;;5032711;28;45424;-72
2022/09/28 10:26:21;;;;;;;;;1.00;1.00;;;;;;;;5026571;28;46283;-72
2022/09/28 10:28:50;;;;;;;;;6.33;5.00;;;;;;;;5034049;28;45266;-72
2022/09/28 10:31:34;;;;;;;;;1.33;1.33;;;;;;;;5034569;28;45385;-72
2022/09/28 10:34:00;;;;;;;;;1.00;1.00;;;;;;;;5026826;28;45432;-72
2022/09/28 10:36:25;;;;;;;;;2.00;2.00;;;;;;;;5016383;28;46136;-73
2022/09/28 10:38:50;;;;;;;;;1.00;1.00;;;;;;;;5024392;28;45411;-72
2022/09/28 10:41:16;;;;;;;;;1.00;1.00;;;;;;;;5036051;28;45285;-72
2022/09/28 10:44:04;;;;;;;;;2.00;1.00;;;;;;;;5055526;28;45415;-71
2022/09/28 10:46:30;;;;;;;;;2.00;2.00;;;;;;;;5052134;28;45465;-72
2022/09/28 10:49:14;;;;;;;;;6.00;2.67;;;;;;;;5046531;28;45281;-72
2022/09/28 10:51:42;;;;;;;;;4.33;1.00;;;;;;;;5052123;28;45331;-71
2022/09/28 10:54:13;;;;;;;;;2.00;0.67;;;;;;;;5048905;28;45189;-72
2022/09/28 10:56:39;;;;;;;;;2.00;2.00;;;;;;;;5054170;28;45355;-72
2022/09/28 10:59:27;;;;;;;;;3.00;2.00;;;;;;;;5054956;28;45465;-74
2022/09/28 11:02:01;;;;;;;;;0.00;0.00;;;;;;;;5077901;27;45449;-74
2022/09/28 11:04:28;;;;;;;;;3.00;1.00;;;;;;;;5051476;28;45591;-74
2022/09/28 11:06:57;;;;;;;;;2.67;1.33;;;;;;;;5054884;28;45302;-75
2022/09/28 11:09:23;;;;;;;;;1.00;1.00;;;;;;;;5056685;28;45744;-74
2022/09/28 11:11:48;;;;;;;;;4.33;1.33;;;;;;;;5047760;28;45375;-75
2022/09/28 11:14:34;;;;;;;;;1.00;1.00;;;;;;;;5047389;28;45585;-74
2022/09/28 11:17:31;;;;;;;;;1.00;0.67;;;;;;;;5076760;28;47213;-74
2022/09/28 11:20:01;;;;;;;;;1.00;1.00;;;;;;;;5023787;28;45373;-74
2022/09/28 11:22:28;;;;;;;;;2.00;2.00;;;;;;;;5051680;28;45333;-74
2022/09/28 11:25:12;;;;;;;;;1.33;1.33;;;;;;;;5050762;28;45285;-74
2022/09/28 11:27:37;;;;;;;;;1.00;1.00;;;;;;;;5053066;28;45326;-74
2022/09/28 11:30:03;;;;;;;;;3.33;2.00;;;;;;;;5053118;28;45414;-74
2022/09/28 11:32:30;;;;;;;;;2.00;1.67;;;;;;;;5059438;28;45351;-74
2022/09/28 11:34:57;;;;;;;;;1.67;1.67;;;;;;;;5057474;28;45435;-74
2022/09/28 11:37:29;;;;;;;;;1.00;1.00;;;;;;;;5057017;28;45259;-74
2022/09/28 11:40:07;;;;;;;;;2.67;1.00;;;;;;;;5050142;28;45327;-74
2022/09/28 11:42:42;;;;;;;;;1.67;0.67;;;;;;;;5055685;28;45332;-74
2022/09/28 11:45:27;;;;;;;;;1.00;1.00;;;;;;;;5088470;27;46238;-74
2022/09/28 11:47:56;;;;;;;;;1.00;1.00;;;;;;;;5044423;28;45466;-75
2022/09/28 11:50:43;;;;;;;;;0.00;0.00;;;;;;;;5054907;28;45311;-72
2022/09/28 11:53:28;;;;;;;;;1.00;1.00;;;;;;;;5062759;28;45325;-73
2022/09/28 11:56:13;;;;;;;;;1.00;1.00;;;;;;;;5047421;28;45571;-73
2022/09/28 11:58:38;;;;;;;;;2.00;1.00;;;;;;;;5041603;28;46085;-72
2022/09/28 12:01:07;;;;;;;;;3.00;0.25;;;;;;;;5052063;28;45357;-72
2022/09/28 12:03:36;;;;;;;;;2.00;2.00;;;;;;;;5054267;28;44675;-71
2022/09/28 12:06:05;;;;;;;;;0.00;0.00;;;;;;;;5052746;28;45285;-71
2022/09/28 12:08:40;;;;;;;;;2.67;2.00;;;;;;;;5055179;28;46116;-72
2022/09/28 12:11:05;;;;;;;;;1.00;1.00;;;;;;;;5053055;28;45351;-72
2022/09/28 12:13:37;;;;;;;;;1.00;1.00;;;;;;;;5054773;28;45244;-71
2022/09/28 12:16:12;;;;;;;;;2.67;0.67;;;;;;;;5053950;28;47465;-71
2022/09/28 12:18:52;;;;;;;;;1.67;0.67;;;;;;;;5056608;28;45466;-72
2022/09/28 12:21:26;;;;;;;;;2.00;1.00;;;;;;;;5054152;28;45154;-72
2022/09/28 12:23:54;;;;;;;;;1.00;1.00;;;;;;;;5046134;28;44749;-72
2022/09/28 12:26:27;;;;;;;;;3.67;2.00;;;;;;;;5056597;28;45349;-72
2022/09/28 12:28:56;;;;;;;;;4.00;1.67;;;;;;;;5053120;28;45542;-72
2022/09/28 12:31:30;;;;;;;;;1.00;1.00;;;;;;;;5090328;27;45331;-72
2022/09/28 12:33:55;;;;;;;;;3.67;1.67;;;;;;;;5054206;28;45394;-72
2022/09/28 12:36:43;;;;;;;;;1.00;1.00;;;;;;;;5056492;28;45522;-72
2022/09/28 12:39:24;;;;;;;;;2.00;0.33;;;;;;;;5050668;28;45491;-72
2022/09/28 12:41:58;;;;;;;;;2.00;2.00;;;;;;;;5056451;28;45477;-72
2022/09/28 12:44:32;;;;;;;;;3.67;2.00;;;;;;;;5051156;28;45490;-72
2022/09/28 12:46:57;;;;;;;;;1.00;1.00;;;;;;;;5052032;28;45452;-72
2022/09/28 12:49:29;;;;;;;;;1.33;1.33;;;;;;;;5053555;28;45439;-72
2022/09/28 12:51:58;;;;;;;;;2.00;1.00;;;;;;;;5055883;28;45435;-72
2022/09/28 12:54:33;;;;;;;;;4.00;2.00;;;;;;;;5049042;28;45218;-72
2022/09/28 12:57:17;;;;;;;;;0.67;0.67;;;;;;;;5056980;28;45569;-72
2022/09/28 12:59:59;;;;;;;;;2.00;2.00;;;;;;;;5051301;28;45974;-72
2022/09/28 13:02:35;;;;;;;;;4.33;1.67;;;;;;;;5043240;28;45459;-72
2022/09/28 13:05:07;;;;;;;;;3.00;2.00;;;;;;;;5058723;28;45474;-72
2022/09/28 13:07:43;;;;;;;;;5.33;2.00;;;;;;;;5056539;28;45330;-73
2022/09/28 13:10:13;;;;;;;;;2.00;2.00;;;;;;;;5054534;28;45318;-73
2022/09/28 13:12:44;;;;;;;;;2.33;2.33;;;;;;;;5051766;28;45165;-72
2022/09/28 13:15:16;;;;;;;;;1.33;1.33;;;;;;;;5048347;28;45372;-72
2022/09/28 13:17:48;;;;;;;;;1.67;1.67;;;;;;;;5055947;28;45420;-73
2022/09/28 13:20:20;;;;;;;;;4.00;3.00;;;;;;;;5050998;28;47770;-72
2022/09/28 13:22:53;;;;;;;;;1.33;1.33;;;;;;;;5052094;28;45297;-72
2022/09/28 13:25:20;;;;;;;;;1.33;0.67;;;;;;;;5046931;28;45470;-72
2022/09/28 13:28:03;;;;;;;;;3.33;1.00;;;;;;;;5043252;28;45433;-72
2022/09/28 13:30:28;;;;;;;;;2.00;0.67;;;;;;;;5048572;28;46541;-72
2022/09/28 13:32:58;;;;;;;;;1.00;1.00;;;;;;;;5045079;28;45365;-73
2022/09/28 13:35:23;;;;;;;;;3.67;1.00;;;;;;;;5055881;28;44769;-73
2022/09/28 13:38:07;;;;;;;;;1.67;0.67;;;;;;;;5053244;28;45257;-72
2022/09/28 13:40:51;;;;;;;;;3.00;1.33;;;;;;;;5054832;28;46386;-72
2022/09/28 13:43:27;;;;;;;;;1.00;1.00;;;;;;;;5048557;28;45205;-72
2022/09/28 13:45:53;;;;;;;;;4.67;2.00;;;;;;;;5049749;28;45489;-72
2022/09/28 13:48:20;;;;;;;;;2.33;0.67;;;;;;;;5050314;28;45211;-74
2022/09/28 13:50:45;;;;;;;;;1.00;0.00;;;;;;;;5056123;28;45424;-77
2022/09/28 13:53:19;;;;;;;;;0.67;0.67;;;;;;;;5054005;28;45201;-78
2022/09/28 13:55:47;;;;;;;;;2.00;2.00;;;;;;;;5056421;28;45355;-78
2022/09/28 13:58:21;;;;;;;;;0.67;0.67;;;;;;;;5057791;28;45401;-78
2022/09/28 14:00:46;;;;;;;;;1.67;1.00;;;;;;;;5046472;28;45391;-78
2022/09/28 14:03:20;;;;;;;;;1.67;1.67;;;;;;;;5043009;28;45268;-78
2022/09/28 14:05:50;;;;;;;;;2.00;2.00;;;;;;;;5062876;28;45459;-80
2022/09/28 14:08:27;;;;;;;;;2.00;2.00;;;;;;;;5047594;28;45254;-81
2022/09/28 14:10:54;;;;;;;;;1.00;1.00;;;;;;;;5052511;28;45221;-80
2022/09/28 14:13:45;;;;;;;;;3.33;3.00;;;;;;;;5050480;28;45240;-81
2022/09/28 14:16:19;;;;;;;;;2.00;2.00;;;;;;;;5029520;28;45288;-80
2022/09/28 14:18:48;;;;;;;;;1.00;1.00;;;;;;;;5054915;28;45600;-79
2022/09/28 14:21:29;;;;;;;;;0.00;0.00;;;;;;;;5057522;28;46153;-75
2022/09/28 14:24:00;;;;;;;;;1.00;1.00;;;;;;;;5053680;28;45383;-76
2022/09/28 14:26:40;;;;;;;;;1.33;1.33;;;;;;;;5050889;28;45455;-76
2022/09/28 14:29:28;;;;;;;;;4.33;1.00;;;;;;;;5053581;28;45343;-75
2022/09/28 14:32:23;;;;;;;;;2.00;2.00;;;;;;;;5041830;28;46217;-75
2022/09/28 14:34:59;;;;;;;;;2.00;2.00;;;;;;;;5054428;28;45352;-76
2022/09/28 14:43:33;;;;;;;;;5.33;1.67;;;;;;;;5041970;28;45710;-75
2022/09/28 14:46:11;;;;;;;;;2.00;1.00;;;;;;;;5059454;28;45233;-75
2022/09/28 14:48:46;;;;;;;;;1.00;1.00;;;;;;;;5063199;28;45505;-75
2022/09/28 14:51:31;;;;;;;;;3.00;2.00;;;;;;;;5054815;28;45399;-78
2022/09/28 14:54:01;;;;;;;;;3.00;1.00;;;;;;;;5050443;28;45541;-75
2022/09/28 14:56:28;;;;;;;;;2.00;2.00;;;;;;;;5057678;28;45299;-76
2022/09/28 14:58:55;;;;;;;;;2.00;2.00;;;;;;;;5052489;28;45378;-76
2022/09/28 15:01:23;;;;;;;;;1.00;1.00;;;;;;;;5057227;28;45444;-76
2022/09/28 15:03:51;;;;;;;;;1.00;1.00;;;;;;;;5055386;28;46847;-76
2022/09/28 15:06:18;;;;;;;;;1.00;1.00;;;;;;;;5056145;28;45635;-76
2022/09/28 15:08:43;;;;;;;;;2.67;1.00;;;;;;;;5069308;28;45306;-75
2022/09/28 15:11:23;;;;;;;;;0.33;0.33;;;;;;;;5063009;28;46142;-75